Stanwood, Michigan
Current Conditions -  °F | °C
As of 11:34 AM on Friday 21 Nov 2014 (Local Time) from KRQB Reporting Station
Scattered Clouds Scattered Clouds  
Wind Chill: -9°   Ceiling: Unl
Heat Index: -5°   Visibility: 10mi
Dew Point: -10°   Wind: 6mph
Humidity: 70%   Direction: 230°SW
Pressure: 30.38"   Gusts: NA
Location:  43.58°N, 85.45°W
Report Text: KRQB 211634Z AUTO 23005KT 10SM SCT022 M05/M10 A3038 RMK AO2 T10491097
Loading
Personal Weather Stations






























Interactive Weather Map New forecast layout! Learn more

10-Day Weather Forecast

Advertisements
Track Severe Weather on mobile